»·PEaware :: SWA1272 KPHX-KLAX

SWA1272 :: KPHX-KLAX

FLIGHT INFORMATION

Flight Status: Arrived
Operator:
Southwest Airlines
More flights by this operator :: More flights under this callsign
Pilot: Rohan O. (9904)
Aircraft: BOEING 737-300
(B733)
More flights by this aircraft type
Origin: KPHX Phoenix Sky Harbor Intl
United States
Destination: KLAX Los Angeles Intl
United States
More flights between these airports :: More routes between these airports
Route: +KEENS2 MESSI ESTWD HLYWD1
File this flight plan on PilotEdge
Remarks: RMK / SIMBRIEF
Altitude:
(Current/Filed)
36,000ft
Speed:
(Current/Filed)
429kts
Departed: 25-Aug-19 11:53 AM
Arrived: 25-Aug-19 12:47 PM
Distance/Time
Traveled:
321nm/0:54
Distance/Time
To Go:
Arrived

Flight Plot

Page will automatically refresh every two minutes.

Flight plan parsing failed; only flown route is shown


Map Options




Map Legend


Flown Route
Filed Route
Departure Airport
Arrival Airport
Navaid (VOR, NDB)
Fix

Horizontal Profiles

Position Reports

Time Latitude Longitude Heading Altitude Ground
Speed
25-Aug-19 11:30 33.437887 -111.996319 269 1141ft 0kts
25-Aug-19 11:31 33.437887 -111.996319 269 1141ft 0kts
25-Aug-19 11:32 33.437887 -111.996319 269 1141ft 0kts
25-Aug-19 11:33 33.437887 -111.996319 269 1141ft 0kts
25-Aug-19 11:34 33.437887 -111.996319 269 1141ft 0kts
25-Aug-19 11:35 33.437887 -111.996319 269 1141ft 0kts
25-Aug-19 11:36 33.437887 -111.996319 269 1141ft 0kts
25-Aug-19 11:37 33.437887 -111.996319 269 1141ft 0kts
25-Aug-19 11:38 33.437887 -111.996319 269 1141ft 0kts
25-Aug-19 11:39 33.437887 -111.996319 269 1141ft 0kts
25-Aug-19 11:40 33.437887 -111.996319 269 1141ft 0kts
25-Aug-19 11:41 33.437887 -111.996319 269 1141ft 0kts
25-Aug-19 11:42 33.437887 -111.996319 269 1141ft 0kts
25-Aug-19 11:43 33.437887 -111.996319 269 1141ft 0kts
25-Aug-19 11:44 33.437887 -111.996319 269 1141ft 0kts
25-Aug-19 11:46 33.437889 -111.996196 269 1141ft 0kts
25-Aug-19 11:47 33.437898 -111.995535 268 1141ft 0kts
25-Aug-19 11:48 33.437901 -111.995350 268 1141ft 0kts
25-Aug-19 11:49 33.437901 -111.995350 268 1141ft 0kts
25-Aug-19 11:50 33.438076 -111.995619 332 1141ft 5kts
25-Aug-19 11:51 33.439748 -111.994158 86 1141ft 13kts
25-Aug-19 11:52 33.440606 -111.991202 324 1141ft 12kts
25-Aug-19 11:53 33.440928 -112.011490 271 1182ft 150kts
25-Aug-19 11:54 33.433209 -112.071981 246 2624ft 224kts
25-Aug-19 11:55 33.406817 -112.146895 249 4789ft 267kts
25-Aug-19 11:56 33.396135 -112.234312 280 7629ft 278kts
25-Aug-19 11:57 33.409894 -112.326896 280 8052ft 280kts
25-Aug-19 11:58 33.423743 -112.420065 280 9976ft 289kts
25-Aug-19 11:59 33.439462 -112.526345 280 11667ft 343kts
25-Aug-19 12:00 33.451046 -112.642328 271 14348ft 358kts
25-Aug-19 12:01 33.452426 -112.765143 271 16823ft 374kts
25-Aug-19 12:02 33.482536 -112.885336 291 19122ft 383kts
25-Aug-19 12:03 33.525049 -113.006137 291 21158ft 399kts
25-Aug-19 12:03 33.561607 -113.110876 291 22759ft 411kts
25-Aug-19 12:05 33.614235 -113.262410 291 24838ft 426kts
25-Aug-19 12:06 33.660398 -113.396053 291 26451ft 438kts
25-Aug-19 12:06 33.699742 -113.510340 291 27715ft 448kts
25-Aug-19 12:08 33.755488 -113.672725 290 29773ft 447kts
25-Aug-19 12:08 33.794924 -113.788272 290 31083ft 445kts
25-Aug-19 12:09 33.841688 -113.926302 291 32438ft 444kts
25-Aug-19 12:10 33.888577 -114.064370 291 33582ft 445kts
25-Aug-19 12:11 33.921404 -114.207089 279 34626ft 442kts
25-Aug-19 12:12 33.945751 -114.352715 280 35609ft 439kts
25-Aug-19 12:13 33.970179 -114.497386 280 35974ft 448kts
25-Aug-19 12:14 33.995335 -114.647474 280 35988ft 461kts
25-Aug-19 12:15 34.020795 -114.800803 280 36026ft 466kts
25-Aug-19 12:16 34.046011 -114.953699 279 36021ft 465kts
25-Aug-19 12:17 34.070475 -115.106766 280 36018ft 469kts
25-Aug-19 12:18 34.095712 -115.262370 280 36039ft 472kts
25-Aug-19 12:19 34.120279 -115.412968 280 36125ft 473kts
25-Aug-19 12:20 34.145293 -115.569228 280 36157ft 472kts
25-Aug-19 12:21 34.162375 -115.725563 261 36155ft 467kts
25-Aug-19 12:22 34.145484 -115.881625 261 36160ft 469kts
25-Aug-19 12:23 34.131285 -116.027181 261 36157ft 469kts
25-Aug-19 12:24 34.115941 -116.183059 261 32853ft 472kts
25-Aug-19 12:25 34.100171 -116.339008 260 30045ft 454kts
25-Aug-19 12:26 34.084831 -116.482098 260 29909ft 429kts
25-Aug-19 12:27 34.069438 -116.629585 262 25564ft 473kts
25-Aug-19 12:28 34.055687 -116.778804 261 22937ft 420kts
25-Aug-19 12:29 34.042250 -116.913369 259 20914ft 388kts
25-Aug-19 12:30 34.025260 -117.044338 260 18165ft 386kts
25-Aug-19 12:31 34.010184 -117.171423 260 16686ft 384kts
25-Aug-19 12:32 33.994896 -117.298980 260 15282ft 377kts
25-Aug-19 12:33 33.980402 -117.422173 261 13676ft 364kts
25-Aug-19 12:34 33.973157 -117.539857 270 12770ft 331kts
25-Aug-19 12:35 33.975095 -117.652207 269 10593ft 326kts
25-Aug-19 12:36 33.976658 -117.755964 269 9764ft 286kts
25-Aug-19 12:37 33.977985 -117.851514 269 8244ft 279kts
25-Aug-19 12:38 33.979197 -117.943275 269 6640ft 269kts
25-Aug-19 12:39 33.980307 -118.032499 269 5039ft 262kts
25-Aug-19 12:40 33.980277 -118.118395 265 3975ft 235kts
25-Aug-19 12:41 33.973700 -118.192541 261 3731ft 218kts
25-Aug-19 12:42 33.966212 -118.263927 261 2415ft 202kts
25-Aug-19 12:43 33.959913 -118.325859 261 1395ft 159kts
25-Aug-19 12:44 33.955019 -118.372675 262 604ft 131kts
25-Aug-19 12:45 33.950652 -118.415724 264 132ft 89kts
25-Aug-19 12:46 33.949034 -118.426068 229 132ft 11kts
25-Aug-19 12:47 33.946405 -118.426439 83 132ft 17kts
25-Aug-19 12:48 33.947053 -118.420075 82 132ft 21kts
25-Aug-19 12:49 33.948002 -118.412283 81 132ft 25kts
25-Aug-19 12:50 33.947467 -118.408690 146 132ft 6kts
25-Aug-19 12:51 33.947029 -118.408334 146 132ft 0kts

Navigation Log

Ident Type
Flight plan parsing failed, navigation log unavailable